TAF Text Data
IDs:
Format:
Raw Decoded Include METAR

Data at: 1231 UTC 20 Oct 2021

Region: TOP
KATL 201132Z 2012/2118 20003KT P6SM FEW200 SCT250
  FM201500 23005KT P6SM SCT200
  FM210000 19003KT P6SM FEW200
  FM211000 VRB03KT P6SM BKN060 BKN100
  FM211400 21005KT P6SM VCSH BKN020


KBOS 201120Z 2012/2118 28011KT P6SM SCT150
  FM201400 30010KT P6SM FEW250
  FM201800 32006KT P6SM SCT200
  FM202200 08005KT P6SM SCT250
  FM210200 23006KT P6SM SCT250


KBWI 201129Z 2012/2118 25008KT P6SM FEW150 SCT250
  FM201600 28009G16KT P6SM SCT250
  FM202200 27005KT P6SM FEW250
  FM210100 00000KT P6SM FEW250
  FM211500 17004KT P6SM FEW250


KCLE 201122Z 2012/2118 23004KT P6SM FEW250
  FM201600 23010KT P6SM FEW250
  FM210600 20008KT P6SM BKN100
  FM211400 21012KT P6SM VCTS BKN035CB


KCLT 201130Z 2012/2118 22003KT P6SM SKC
  FM201600 23006KT P6SM SKC
  FM210000 22003KT P6SM FEW250


KCVG 201136Z 2012/2118 21003KT P6SM SKC
  FM201300 20009KT P6SM SKC
  FM210000 19005KT P6SM SCT090 BKN250
  FM210900 21008KT P6SM VCSH BKN050
  FM211300 21008KT P6SM VCSH BKN025
  FM211400 22009KT P6SM BKN015
  FM211600 23010G18KT P6SM SCT025


KDCA 201129Z 2012/2118 23005KT P6SM FEW150 SCT250
  FM201600 27009G16KT P6SM FEW250
  FM202300 22004KT P6SM FEW250
  FM210100 19004KT P6SM FEW250


KDEN 201122Z 2012/2118 17006KT P6SM FEW100
  FM201800 08006KT P6SM FEW220
  FM202200 10007KT P6SM FEW220
  FM210100 15006KT P6SM SCT220
  FM210900 21008KT P6SM SCT220
  FM211700 23006KT P6SM SCT220


KDFW 201120Z 2012/2118 19012KT P6SM BKN025
  TEMPO 2012/2015 BKN012
  FM201700 21011KT P6SM SCT040
  FM210500 26005KT P6SM SCT035
  FM210700 34004KT P6SM SCT025


KDTW 201120Z 2012/2118 26006KT P6SM SCT120 SCT250
  FM201600 23011KT P6SM SCT120
  FM202300 22006KT P6SM SCT080 OVC120
  FM210900 20010KT P6SM -SHRA BKN045 OVC060
  TEMPO 2110/2113 6SM -RA SCT009 BKN018 OVC040
  FM211300 21011KT P6SM SCT007 OVC012
  FM211600 21012KT P6SM SCT022 BKN035


KEWR 201120Z 2012/2118 25007KT P6SM SCT250
  FM201500 28010G20KT P6SM SKC
  FM202100 28009KT P6SM SKC
  FM210000 26005KT P6SM FEW100
  FM211400 22004KT P6SM FEW100
  FM211700 21007G13KT P6SM FEW100


KFLL 201120Z 2012/2118 06010KT P6SM SCT030 SCT050
  FM201400 08015KT P6SM SCT035 SCT050
  FM210200 08008KT P6SM FEW030 SCT050
  FM211500 08012KT P6SM SCT030 BKN050


KIAD 201129Z 2012/2118 VRB03KT P6SM SCT250
  FM201400 28008KT P6SM FEW250
  FM202300 23003KT P6SM FEW250
  FM210100 20003KT P6SM FEW250


KIAH 201136Z 2012/2118 04003KT P6SM FEW015 SCT035 BKN250
  FM201500 11006KT P6SM SCT030 BKN250
  FM210200 15006KT P6SM SCT040 SCT250
  FM210900 VRB02KT 5SM BR BKN021
  FM211500 07005KT P6SM SCT030


KJFK 201120Z 2012/2118 27010KT P6SM SCT250
  FM201500 29011G21KT P6SM SKC
  FM202100 27010KT P6SM SKC
  FM210000 26006KT P6SM FEW100
  FM211400 23006KT P6SM FEW100
  FM211700 20009KT P6SM FEW100


KLAS 201131Z 2012/2118 25005KT P6SM FEW250
  FM201700 08006KT P6SM BKN200
  FM210300 25006KT P6SM SCT250
  FM211700 04005KT P6SM SCT250


KLAX 201156Z 2012/2118 08003KT P6SM SCT008 BKN250
  FM201700 25005KT P6SM SCT250
  FM202000 27012KT P6SM BKN250
  FM210300 26006KT P6SM BKN250
  FM210900 VRB03KT P6SM SCT007 BKN250
  FM211600 25005KT P6SM BKN250


KLGA 201120Z 2012/2118 28006KT P6SM SCT250
  FM201500 29010G20KT P6SM SKC
  FM202100 29010KT P6SM SKC
  FM210000 26005KT P6SM SCT100
  FM211400 23006KT P6SM FEW100
  FM211700 21009G14KT P6SM FEW100


KMCO 201133Z 2012/2118 03005KT P6SM FEW030 FEW250
  FM201500 07010KT P6SM FEW045 SCT250
  FM210100 08005KT P6SM FEW250
  FM211500 10008KT P6SM FEW050 FEW250


KMDW 201120Z 2012/2118 20009KT P6SM FEW100
  FM201600 20011G18KT P6SM SCT100 BKN250
  FM210100 18011KT P6SM VCSH SCT035 BKN050
  FM210700 25011KT P6SM BKN035
  FM211400 28012KT P6SM BKN020


KMEM 201126Z 2012/2118 19006KT P6SM FEW250
  FM201500 20008KT P6SM FEW250
  FM210000 18006KT P6SM FEW250
  FM211000 20005KT P6SM VCSH OVC100
  FM211400 25006KT P6SM BKN100


KMIA 201120Z 2012/2118 05007KT P6SM FEW030 SCT050
  FM201400 07013KT P6SM SCT035 SCT050
  FM210200 07006KT P6SM FEW030 SCT050
  FM211500 08012KT P6SM SCT030 BKN050


KMSP 201125Z 2012/2118 05005KT P6SM BKN120
  FM201600 07009KT 6SM -RA BR SCT020 BKN040
  TEMPO 2018/2022 3SM TSRA BR BKN020CB
  FM210000 04011KT 5SM -RA BR OVC015
  FM210200 03012G20KT 4SM -RA BR OVC009
  FM210700 01013G22KT 6SM BR OVC013
  FM211000 36011KT P6SM BKN040


KORD 201120Z 2012/2118 20009KT P6SM FEW100
  FM201600 20011G18KT P6SM SCT100 BKN250
  FM210100 18011KT P6SM VCSH SCT035 BKN050
  FM210700 25011KT P6SM BKN035
  FM211400 28012KT P6SM BKN020


KPDX 201130Z 2012/2112 12009KT P6SM -SHRA OVC050 WS020/18040KT
  FM201400 14012KT P6SM -SHRA SCT030 OVC050 WS020/19045KT
  FM201600 16015G23KT P6SM -SHRA SCT030 OVC060
  FM202000 18010KT P6SM VCSH SCT040 BKN070
  FM210200 12008KT P6SM BKN070 OVC100


KPHL 201120Z 2012/2118 25007KT P6SM SCT250
  FM201500 28010G17KT P6SM SKC
  FM202300 28006KT P6SM FEW200
  FM210100 VRB04KT P6SM FEW250
  FM211400 23006KT P6SM FEW250


KPHX 201120Z 2012/2118 10005KT P6SM FEW250
  FM202100 24004KT P6SM FEW250
  FM210100 31005KT P6SM FEW250
  FM210600 09005KT P6SM FEW150 FEW250


KPIT 201125Z 2012/2118 23005KT P6SM SKC
  FM211500 21009G18KT P6SM VCSH SCT030


KSAN 201120Z 2012/2118 VRB04KT P6SM SKC
  FM201900 30009KT P6SM SCT200
  FM210200 VRB04KT P6SM SCT012 SCT200


KSEA 201146Z 2012/2118 21006KT P6SM -RA OVC050
  FM201500 19010G18KT P6SM -RA BKN025 OVC040
  FM202100 22009KT P6SM -SHRA BKN035 BKN050
  FM210400 15006KT P6SM BKN050 BKN100
  FM210600 08006KT P6SM OVC050


KSFO 201121Z 2012/2118 16014G20KT 6SM -SHRA BR FEW010 BKN030 OVC040 WS015/16035KT
  FM201500 16014KT 6SM -SHRA BR FEW011 BKN030 OVC050
  FM202000 17014G22KT P6SM VCSH FEW012 BKN035 BKN050
  FM210300 14013KT 6SM -SHRA BR FEW010 BKN025 OVC050
  FM211200 14007KT P6SM VCSH BKN025 OVC050


KSLC 201227Z 2012/2118 16009KT P6SM SCT200
  FM201800 16005KT P6SM FEW050 SCT250
  FM202300 33007KT P6SM FEW100 SCT250
  FM210300 15005KT P6SM SCT250


KSTL 201129Z 2012/2118 17006KT P6SM SCT100
  FM201500 19010G18KT P6SM FEW050 BKN250
  FM202300 20010G17KT P6SM VCSH BKN050
  FM210300 23009KT P6SM BKN050
  FM210600 27010G17KT P6SM SCT060


KTPA 201120Z 2012/2118 07004KT P6SM FEW250
  FM201500 09007KT P6SM SCT040 SCT250
  FM201900 08006KT P6SM SCT060 BKN250
  FM210100 09005KT P6SM FEW050 BKN250
  FM211500 10006KT P6SM SCT040 SCT250